KOLV/OLV METAR and TAF weather

Enter ICAO airport designator
Station Type Date Time Source
KOLV METAR 2019/08/25 13:50 UTC NOAA

KOLV 251350Z 15005KT 10SM FEW009 SCT110 BKN150 24/22 A2997


Station Type Date Time Source
KOLV Decoded METAR 2019/08/25 13:50 UTC NOAA

Station name not available
Aug 25, 2019 - 09:50 AM EDT / 2019.08.25 1350 UTC
Wind: from the SSE (150 degrees) at 6 MPH (5 KT):0
Visibility: 10 mile(s):0
Sky conditions: mostly cloudy
Temperature: 75 F (24 C)
Dew Point: 71 F (22 C)
Relative Humidity: 88%
Pressure (altimeter): 29.97 in. Hg (1014 hPa)
ob: KOLV 251350Z 15005KT 10SM FEW009 SCT110 BKN150 24/22 A2997
cycle: 14

Station Type Date Time Source
KOLV TAF UTC NOAA

Error!

Example: see airport list